createdAt,value
2023-04-07T00:02:42.459Z,99.90
2023-04-07T00:08:49.316Z,99.90
2023-04-07T00:14:51.320Z,99.90
2023-04-07T00:20:54.605Z,99.90
2023-04-07T00:26:57.030Z,99.90
2023-04-07T00:32:59.326Z,99.90
2023-04-07T00:39:01.496Z,99.90
2023-04-07T00:45:06.585Z,99.90
2023-04-07T00:51:08.721Z,99.90
2023-04-07T00:57:11.072Z,99.90
2023-04-07T01:03:31.892Z,99.90
2023-04-07T01:09:47.753Z,99.90
2023-04-07T01:15:53.070Z,99.90
2023-04-07T01:21:58.916Z,99.90
2023-04-07T01:28:02.194Z,99.90
2023-04-07T01:34:08.720Z,99.90
2023-04-07T01:40:11.575Z,99.90
2023-04-07T01:46:14.346Z,99.90
2023-04-07T01:52:17.328Z,99.90
2023-04-07T01:58:19.134Z,99.90
2023-04-07T02:04:38.981Z,99.90
2023-04-07T02:10:41.884Z,99.90
2023-04-07T02:16:47.458Z,99.90
2023-04-07T02:22:50.889Z,99.90
2023-04-07T02:28:52.951Z,99.90
2023-04-07T02:34:55.059Z,99.90
2023-04-07T02:40:57.069Z,99.90
2023-04-07T02:46:58.996Z,99.90
2023-04-07T02:53:00.984Z,99.90
2023-04-07T02:59:02.978Z,99.90
2023-04-07T03:05:09.436Z,99.90
2023-04-07T03:11:11.700Z,99.90
2023-04-07T03:17:13.693Z,99.90
2023-04-07T03:23:16.560Z,99.90
2023-04-07T03:29:19.858Z,99.90
2023-04-07T03:35:22.228Z,99.90
2023-04-07T03:41:24.307Z,99.90
2023-04-07T03:47:26.525Z,99.90
2023-04-07T03:53:33.200Z,99.90
2023-04-07T03:59:40.136Z,99.90
2023-04-07T04:05:42.973Z,99.90
2023-04-07T04:11:49.993Z,99.90
2023-04-07T04:17:53.055Z,99.90
2023-04-07T04:23:55.986Z,99.90
2023-04-07T04:29:58.192Z,99.90
2023-04-07T04:36:26.421Z,99.90
2023-04-07T04:42:33.929Z,99.90
2023-04-07T04:48:37.440Z,99.90
2023-04-07T04:54:41.357Z,99.90
2023-04-07T05:00:45.197Z,99.90
2023-04-07T05:06:47.273Z,99.90
2023-04-07T05:12:52.588Z,99.90
2023-04-07T05:18:54.655Z,99.90
2023-04-07T05:24:57.098Z,99.90
2023-04-07T05:30:59.053Z,99.90
2023-04-07T05:37:05.516Z,99.90
2023-04-07T05:43:07.838Z,99.90
2023-04-07T05:49:19.666Z,99.90
2023-04-07T05:55:27.632Z,99.90
2023-04-07T06:01:30.416Z,99.90
2023-04-07T06:07:33.437Z,99.90
2023-04-07T06:13:35.740Z,99.90
2023-04-07T06:19:38.151Z,99.90
2023-04-07T06:25:40.049Z,99.90
2023-04-07T06:31:42.032Z,99.90
2023-04-07T06:37:44.363Z,99.90
2023-04-07T06:43:47.753Z,99.90
2023-04-07T06:49:50.699Z,99.90
2023-04-07T06:56:02.669Z,99.90
2023-04-07T07:02:04.777Z,99.90
2023-04-07T07:08:06.671Z,99.90
2023-04-07T07:14:08.445Z,99.90
2023-04-07T07:20:10.696Z,99.90
2023-04-07T07:26:12.452Z,99.90
2023-04-07T07:32:14.227Z,99.90
2023-04-07T07:38:16.129Z,99.90
2023-04-07T07:44:20.176Z,99.90
2023-04-07T07:50:22.714Z,99.90
2023-04-07T07:56:24.486Z,99.90
2023-04-07T08:02:30.938Z,99.90
2023-04-07T08:08:32.836Z,99.90
2023-04-07T08:14:34.656Z,99.90
2023-04-07T08:20:37.239Z,99.90
2023-04-07T08:26:39.375Z,99.90
2023-04-07T08:32:42.558Z,99.90
2023-04-07T08:38:44.584Z,99.90
2023-04-07T08:44:47.809Z,99.90
2023-04-07T08:50:53.820Z,99.90
2023-04-07T08:56:56.101Z,99.90
2023-04-07T09:03:04.933Z,99.90
2023-04-07T09:09:09.888Z,99.90
2023-04-07T09:15:11.946Z,99.90
2023-04-07T09:21:15.209Z,99.90
2023-04-07T09:27:20.971Z,99.90
2023-04-07T09:33:27.023Z,99.90
2023-04-07T09:39:29.624Z,99.90
2023-04-07T09:45:39.551Z,99.90
2023-04-07T09:51:52.419Z,99.90
2023-04-07T09:57:57.516Z,99.90
2023-04-07T10:04:10.525Z,99.90
2023-04-07T10:10:12.557Z,99.90
2023-04-07T10:16:14.673Z,97.00
2023-04-07T10:22:17.446Z,98.80
2023-04-07T10:28:21.322Z,99.90
2023-04-07T10:34:43.610Z,99.90
2023-04-07T10:40:45.394Z,99.90
2023-04-07T10:46:51.910Z,99.90
2023-04-07T10:53:09.660Z,99.50
2023-04-07T10:59:14.891Z,99.90
2023-04-07T11:05:21.119Z,99.90
2023-04-07T11:11:37.468Z,97.70
2023-04-07T11:17:39.208Z,98.10
2023-04-07T11:23:42.327Z,99.50
2023-04-07T11:29:44.148Z,96.30
2023-04-07T11:35:53.623Z,97.30
2023-04-07T11:41:55.548Z,95.90
2023-04-07T11:47:57.307Z,92.60
2023-04-07T11:53:59.030Z,91.30
2023-04-07T12:00:11.576Z,95.30
2023-04-07T12:06:13.452Z,94.70
2023-04-07T12:12:25.050Z,92.10
2023-04-07T12:18:27.137Z,94.70
2023-04-07T12:24:29.015Z,92.90
2023-04-07T12:30:30.798Z,94.60
2023-04-07T12:36:33.279Z,92.70
2023-04-07T12:42:34.992Z,93.40
2023-04-07T12:48:36.686Z,95.40
2023-04-07T12:54:39.408Z,92.50
2023-04-07T13:00:41.752Z,92.20
2023-04-07T13:06:43.639Z,92.20
2023-04-07T13:12:45.476Z,92.70
2023-04-07T13:18:47.202Z,91.40
2023-04-07T13:24:48.876Z,90.00
2023-04-07T13:30:50.810Z,91.60
2023-04-07T13:36:52.541Z,93.50
2023-04-07T13:42:54.293Z,92.60
2023-04-07T13:48:56.445Z,90.70
2023-04-07T13:54:58.728Z,90.80
2023-04-07T14:01:01.567Z,87.60
2023-04-07T14:07:03.832Z,84.80
2023-04-07T14:13:06.371Z,87.40
2023-04-07T14:19:08.461Z,86.50
2023-04-07T14:25:11.369Z,90.20
2023-04-07T14:31:14.709Z,82.20
2023-04-07T14:37:19.227Z,79.00
2023-04-07T14:43:21.672Z,77.60
2023-04-07T14:49:26.119Z,88.20
2023-04-07T14:55:28.569Z,76.90
2023-04-07T15:01:31.679Z,80.70
2023-04-07T15:07:34.431Z,87.00
2023-04-07T15:13:36.882Z,86.40
2023-04-07T15:19:39.616Z,83.60
2023-04-07T15:25:42.114Z,79.30
2023-04-07T15:31:44.560Z,79.90
2023-04-07T15:37:47.790Z,82.40
2023-04-07T15:43:50.784Z,81.60
2023-04-07T15:49:53.244Z,85.40
2023-04-07T15:55:56.187Z,84.80
2023-04-07T16:01:58.823Z,85.00
2023-04-07T16:08:01.630Z,83.90
2023-04-07T16:14:03.953Z,81.40
2023-04-07T16:20:10.055Z,81.50
2023-04-07T16:26:11.770Z,79.50
2023-04-07T16:32:13.848Z,78.50
2023-04-07T16:38:15.781Z,79.80
2023-04-07T16:44:17.564Z,79.20
2023-04-07T16:50:19.398Z,80.40
2023-04-07T16:56:22.377Z,81.30
2023-04-07T17:02:24.557Z,83.20
2023-04-07T17:08:26.344Z,85.80
2023-04-07T17:14:28.606Z,86.10
2023-04-07T17:20:30.443Z,83.10
2023-04-07T17:26:32.451Z,83.80
2023-04-07T17:32:34.212Z,84.40
2023-04-07T17:38:36.031Z,86.90
2023-04-07T17:44:37.733Z,87.20
2023-04-07T17:50:42.278Z,86.10
2023-04-07T17:56:43.974Z,91.20
2023-04-07T18:02:46.360Z,93.10
2023-04-07T18:08:48.336Z,94.00
2023-04-07T18:15:07.203Z,97.20
2023-04-07T18:21:08.976Z,99.20
2023-04-07T18:27:10.698Z,99.90
2023-04-07T18:33:14.250Z,99.90
2023-04-07T18:39:15.987Z,99.90
2023-04-07T18:45:17.768Z,99.90
2023-04-07T18:51:19.510Z,99.90
2023-04-07T18:57:21.445Z,99.90
2023-04-07T19:03:23.269Z,99.90
2023-04-07T19:09:25.930Z,99.90
2023-04-07T19:15:28.237Z,99.90
2023-04-07T19:21:29.919Z,99.90
2023-04-07T19:27:32.326Z,99.90
2023-04-07T19:33:34.564Z,99.90
2023-04-07T19:39:36.270Z,99.90
2023-04-07T19:45:38.193Z,99.90
2023-04-07T19:51:42.103Z,99.90
2023-04-07T19:57:46.241Z,99.90
2023-04-07T20:03:49.561Z,99.90
2023-04-07T20:09:55.055Z,99.90
2023-04-07T20:15:56.794Z,99.90
2023-04-07T20:21:58.506Z,99.90
2023-04-07T20:28:00.326Z,99.90
2023-04-07T20:34:02.020Z,99.90
2023-04-07T20:40:07.481Z,99.90
2023-04-07T20:46:13.539Z,99.90
2023-04-07T20:52:16.726Z,99.90
2023-04-07T20:58:19.376Z,99.90
2023-04-07T21:04:21.496Z,99.90
2023-04-07T21:10:23.282Z,99.90
2023-04-07T21:16:25.120Z,99.90
